createdAt,value
2023-05-03T05:01:09.032Z,500.00
2023-05-03T05:02:08.696Z,500.00
2023-05-03T05:03:08.609Z,500.00
2023-05-03T05:04:09.563Z,500.00
2023-05-03T05:05:08.506Z,500.00
2023-05-03T05:06:08.545Z,500.00
2023-05-03T05:07:08.562Z,400.00
2023-05-03T05:08:08.488Z,400.00
2023-05-03T05:09:08.554Z,400.00
2023-05-03T05:10:08.488Z,400.00
2023-05-03T05:11:08.475Z,400.00
2023-05-03T05:12:08.480Z,400.00
2023-05-03T05:13:08.518Z,400.00
2023-05-03T05:14:08.519Z,400.00
2023-05-03T05:15:08.447Z,400.00
2023-05-03T05:16:08.432Z,400.00
2023-05-03T05:17:08.549Z,400.00
2023-05-03T05:18:08.495Z,400.00
2023-05-03T05:19:08.524Z,400.00
2023-05-03T05:20:08.518Z,400.00
2023-05-03T05:22:27.355Z,500.00
2023-05-03T05:23:27.312Z,500.00
2023-05-03T05:24:27.381Z,500.00
2023-05-03T05:25:27.359Z,500.00
2023-05-03T05:26:27.283Z,500.00
2023-05-03T05:27:27.284Z,500.00
2023-05-03T05:28:27.303Z,499.00
2023-05-03T05:29:27.394Z,500.00
2023-05-03T05:30:27.269Z,500.00
2023-05-03T05:31:27.314Z,500.00
2023-05-03T05:32:27.314Z,500.00
2023-05-03T05:33:27.318Z,500.00
2023-05-03T05:34:27.246Z,500.00
2023-05-03T05:35:27.255Z,500.00
2023-05-03T05:36:27.238Z,500.00
2023-05-03T05:37:27.203Z,500.00
2023-05-03T05:38:27.226Z,500.00
2023-05-03T05:39:27.240Z,502.00
2023-05-03T05:40:27.197Z,501.00
2023-05-03T05:41:27.218Z,500.00
2023-05-03T05:42:27.202Z,501.00
2023-05-03T05:43:27.179Z,501.00
2023-05-03T05:44:27.188Z,502.00
2023-05-03T05:45:27.154Z,500.00
2023-05-03T05:46:27.201Z,501.00
2023-05-03T05:47:27.264Z,500.00
2023-05-03T05:48:27.142Z,500.00
2023-05-03T05:49:27.128Z,500.00
2023-05-03T05:50:27.128Z,500.00
2023-05-03T05:51:27.137Z,508.00
2023-05-03T05:52:27.167Z,502.00
2023-05-03T05:53:27.141Z,500.00
2023-05-03T05:54:28.642Z,500.00
2023-05-03T05:55:27.096Z,495.00
2023-05-03T05:56:27.104Z,496.00
2023-05-03T05:57:27.112Z,482.00
2023-05-03T05:58:27.071Z,464.00
2023-05-03T05:59:27.093Z,446.00
2023-05-03T06:00:27.090Z,500.00
2023-05-03T06:01:27.300Z,508.00
2023-05-03T06:02:27.164Z,504.00
2023-05-03T06:03:27.125Z,512.00
2023-05-03T06:04:27.052Z,519.00
2023-05-03T06:05:27.108Z,537.00
2023-05-03T06:06:27.070Z,526.00
2023-05-03T06:07:27.115Z,509.00
2023-05-03T06:08:27.109Z,523.00
2023-05-03T06:09:27.028Z,517.00
2023-05-03T06:10:26.994Z,509.00
2023-05-03T06:11:27.034Z,493.00
2023-05-03T06:12:26.979Z,491.00
2023-05-03T06:13:26.978Z,500.00
2023-05-03T06:14:26.988Z,527.00
2023-05-03T06:15:26.956Z,528.00
2023-05-03T06:16:26.973Z,521.00
2023-05-03T06:17:26.950Z,514.00
2023-05-03T06:18:26.959Z,516.00
2023-05-03T06:19:26.949Z,528.00
2023-05-03T06:20:26.937Z,522.00
2023-05-03T06:21:26.947Z,519.00
2023-05-03T06:22:26.929Z,522.00
2023-05-03T06:23:26.907Z,540.00
2023-05-03T06:24:26.887Z,536.00
2023-05-03T06:25:26.893Z,527.00
2023-05-03T06:26:26.906Z,536.00
2023-05-03T06:27:26.927Z,536.00
2023-05-03T06:28:26.939Z,532.00
2023-05-03T06:29:26.858Z,528.00
2023-05-03T06:30:26.873Z,543.00
2023-05-03T06:31:26.944Z,583.00
2023-05-03T06:32:26.900Z,622.00
2023-05-03T06:33:26.889Z,645.00
2023-05-03T06:34:26.830Z,648.00
2023-05-03T06:35:26.830Z,633.00
2023-05-03T06:36:26.831Z,630.00
2023-05-03T06:37:26.808Z,635.00
2023-05-03T06:38:26.822Z,632.00
2023-05-03T06:39:26.800Z,635.00
2023-05-03T06:40:26.756Z,637.00
2023-05-03T06:41:26.808Z,640.00
2023-05-03T06:42:26.784Z,641.00
2023-05-03T06:43:26.789Z,643.00
2023-05-03T06:44:26.746Z,643.00
2023-05-03T06:45:26.753Z,648.00
2023-05-03T06:46:26.742Z,646.00
2023-05-03T06:47:26.792Z,654.00
2023-05-03T06:48:26.807Z,654.00
2023-05-03T06:49:26.717Z,660.00
2023-05-03T06:50:26.734Z,663.00
2023-05-03T06:51:26.727Z,662.00
2023-05-03T06:52:26.817Z,663.00
2023-05-03T06:53:26.695Z,672.00
2023-05-03T06:54:26.707Z,679.00
2023-05-03T06:55:26.704Z,693.00
2023-05-03T06:56:26.734Z,713.00
2023-05-03T06:57:28.672Z,715.00
2023-05-03T06:58:26.888Z,725.00
2023-05-03T06:59:26.884Z,731.00
2023-05-03T07:00:26.975Z,750.00
2023-05-03T07:01:27.127Z,767.00
2023-05-03T07:02:27.186Z,776.00
2023-05-03T07:03:27.309Z,797.00
2023-05-03T07:04:27.137Z,801.00
2023-05-03T07:05:27.206Z,798.00
2023-05-03T07:06:27.328Z,803.00
2023-05-03T07:07:27.304Z,809.00
2023-05-03T07:08:27.415Z,806.00
2023-05-03T07:10:29.129Z,833.00
2023-05-03T07:11:27.376Z,835.00
2023-05-03T07:12:27.336Z,842.00
2023-05-03T07:13:27.359Z,853.00
2023-05-03T07:14:27.378Z,878.00
2023-05-03T07:15:27.312Z,902.00
2023-05-03T07:16:27.412Z,912.00
2023-05-03T07:17:27.326Z,933.00
2023-05-03T07:18:27.298Z,927.00
2023-05-03T07:19:27.284Z,901.00
2023-05-03T07:20:27.316Z,901.00
2023-05-03T07:21:27.304Z,855.00
2023-05-03T07:22:27.277Z,881.00
2023-05-03T07:23:27.290Z,965.00
2023-05-03T07:24:27.299Z,950.00
2023-05-03T07:25:27.261Z,931.00
2023-05-03T07:26:27.267Z,961.00
2023-05-03T07:27:27.282Z,963.00
2023-05-03T07:28:27.230Z,975.00
2023-05-03T07:29:27.283Z,986.00
2023-05-03T07:30:27.232Z,987.00
2023-05-03T07:31:27.244Z,962.00
2023-05-03T07:32:27.263Z,966.00
2023-05-03T07:33:27.295Z,947.00
2023-05-03T07:34:27.248Z,950.00
2023-05-03T07:35:27.212Z,935.00
2023-05-03T07:36:27.222Z,957.00
2023-05-03T07:37:27.150Z,952.00
2023-05-03T07:38:27.146Z,940.00
2023-05-03T07:39:27.191Z,950.00
2023-05-03T07:40:27.130Z,918.00
2023-05-03T07:41:27.159Z,934.00
2023-05-03T07:42:27.132Z,913.00
2023-05-03T07:43:27.156Z,933.00
2023-05-03T07:44:27.154Z,908.00
2023-05-03T07:45:27.209Z,895.00
2023-05-03T07:46:27.240Z,937.00
2023-05-03T07:47:27.143Z,927.00
2023-05-03T07:48:27.132Z,924.00
2023-05-03T07:49:27.109Z,916.00
2023-05-03T07:50:27.082Z,900.00
2023-05-03T07:51:27.112Z,907.00
2023-05-03T07:52:27.070Z,896.00
2023-05-03T07:53:27.072Z,1016.00
2023-05-03T07:54:27.084Z,1196.00
2023-05-03T07:55:27.077Z,1176.00
2023-05-03T07:56:27.074Z,1181.00
2023-05-03T07:57:27.033Z,1162.00
2023-05-03T07:58:38.759Z,1134.00
2023-05-03T07:59:28.046Z,1131.00
2023-05-03T08:00:27.035Z,1124.00
2023-05-03T08:01:27.011Z,1109.00
2023-05-03T08:02:27.096Z,1152.00
2023-05-03T08:03:27.231Z,1157.00
2023-05-03T08:04:27.236Z,1169.00
2023-05-03T08:05:27.027Z,1169.00
2023-05-03T08:06:27.061Z,1187.00
2023-05-03T08:07:26.955Z,1206.00
2023-05-03T08:08:27.028Z,1212.00
2023-05-03T08:09:27.097Z,1233.00
2023-05-03T08:10:27.126Z,1245.00
2023-05-03T08:11:27.204Z,1251.00
2023-05-03T08:12:27.396Z,1248.00
2023-05-03T08:13:27.321Z,1249.00
2023-05-03T08:14:27.286Z,1250.00
2023-05-03T08:15:27.441Z,1233.00
2023-05-03T08:16:27.480Z,1222.00
2023-05-03T08:17:27.430Z,1243.00
2023-05-03T08:18:27.448Z,1257.00
2023-05-03T08:19:27.488Z,1222.00
2023-05-03T08:20:27.650Z,1216.00
2023-05-03T08:21:27.687Z,1193.00
2023-05-03T08:22:27.685Z,1204.00
2023-05-03T08:23:27.734Z,1216.00
2023-05-03T08:24:27.736Z,1216.00
2023-05-03T08:25:27.765Z,1229.00
2023-05-03T08:26:27.803Z,1218.00
2023-05-03T08:27:27.803Z,1226.00
2023-05-03T08:28:27.887Z,1178.00
2023-05-03T08:29:27.950Z,1140.00
2023-05-03T08:30:27.951Z,1089.00
2023-05-03T08:31:28.209Z,1093.00
2023-05-03T08:32:28.215Z,1053.00
2023-05-03T08:33:28.194Z,1019.00
2023-05-03T08:34:28.212Z,1046.00
2023-05-03T08:35:28.247Z,1022.00
2023-05-03T08:36:28.277Z,748.00
2023-05-03T08:37:28.290Z,670.00
2023-05-03T08:38:28.241Z,620.00
2023-05-03T08:39:28.324Z,500.00
2023-05-03T08:40:28.350Z,513.00
2023-05-03T08:41:30.344Z,551.00
2023-05-03T08:42:28.413Z,554.00
2023-05-03T08:43:28.533Z,562.00
2023-05-03T08:44:28.559Z,523.00
2023-05-03T08:45:28.518Z,500.00
2023-05-03T08:46:28.860Z,501.00
2023-05-03T08:47:28.596Z,497.00
2023-05-03T08:48:30.608Z,509.00
2023-05-03T08:49:28.728Z,503.00
2023-05-03T08:50:28.767Z,504.00
2023-05-03T08:51:28.765Z,489.00
2023-05-03T08:52:28.806Z,475.00
2023-05-03T08:53:28.788Z,420.00
2023-05-03T08:54:28.797Z,444.00
2023-05-03T08:55:28.851Z,516.00
2023-05-03T08:56:28.911Z,546.00
2023-05-03T08:57:28.950Z,567.00
2023-05-03T08:58:29.011Z,586.00
2023-05-03T08:59:29.054Z,603.00
2023-05-03T09:00:29.086Z,594.00
2023-05-03T09:01:29.199Z,606.00
2023-05-03T09:02:29.399Z,662.00
2023-05-03T09:03:29.290Z,803.00
2023-05-03T09:04:29.433Z,886.00
2023-05-03T09:05:29.301Z,955.00
2023-05-03T09:06:29.319Z,1028.00
2023-05-03T09:07:29.339Z,1089.00
2023-05-03T09:08:29.413Z,1272.00
2023-05-03T09:09:29.416Z,1362.00
2023-05-03T09:10:29.383Z,1364.00
2023-05-03T09:11:29.370Z,1414.00
2023-05-03T09:12:29.372Z,1486.00
2023-05-03T09:13:29.422Z,1551.00
2023-05-03T09:14:29.416Z,1609.00
2023-05-03T09:15:29.470Z,1628.00
2023-05-03T09:16:29.569Z,1637.00
2023-05-03T09:17:29.680Z,1664.00
2023-05-03T09:18:29.665Z,1715.00
2023-05-03T09:19:29.734Z,1746.00
2023-05-03T09:20:29.746Z,1787.00
2023-05-03T09:21:29.820Z,1820.00
2023-05-03T09:22:29.926Z,1845.00
2023-05-03T09:23:30.046Z,1865.00
2023-05-03T09:24:30.067Z,1863.00
2023-05-03T09:25:30.079Z,1875.00
2023-05-03T09:26:30.072Z,1895.00
2023-05-03T09:27:30.084Z,1893.00
2023-05-03T09:28:30.145Z,1892.00
2023-05-03T09:29:30.231Z,1922.00
2023-05-03T09:30:30.301Z,1951.00
2023-05-03T09:31:30.261Z,1964.00
2023-05-03T09:32:30.300Z,1988.00
2023-05-03T09:33:30.314Z,2019.00
2023-05-03T09:34:30.345Z,2039.00
2023-05-03T09:35:30.386Z,2032.00
2023-05-03T09:36:30.395Z,2008.00
2023-05-03T09:37:30.426Z,2035.00
2023-05-03T09:38:30.476Z,2005.00
2023-05-03T09:39:30.502Z,2017.00
2023-05-03T09:40:30.566Z,2015.00
2023-05-03T09:41:30.556Z,2010.00
2023-05-03T09:42:30.573Z,2029.00
2023-05-03T09:43:30.596Z,2022.00
2023-05-03T09:44:30.605Z,2014.00
2023-05-03T09:45:30.658Z,2021.00
2023-05-03T09:46:30.811Z,2029.00
2023-05-03T09:47:32.307Z,2007.00
2023-05-03T09:48:30.737Z,2022.00
2023-05-03T09:49:30.740Z,2028.00
2023-05-03T09:50:30.756Z,1995.00
2023-05-03T09:51:30.793Z,1992.00
2023-05-03T09:52:30.811Z,2005.00
2023-05-03T09:53:30.839Z,2017.00
2023-05-03T09:54:30.852Z,2033.00
2023-05-03T09:55:30.887Z,2050.00
2023-05-03T09:56:30.902Z,2057.00
2023-05-03T09:57:30.884Z,2063.00
2023-05-03T09:58:30.982Z,2067.00
2023-05-03T09:59:31.057Z,2051.00
2023-05-03T10:00:30.945Z,2050.00
2023-05-03T10:01:30.985Z,2057.00
2023-05-03T10:02:31.030Z,2001.00
2023-05-03T10:03:31.018Z,1826.00
2023-05-03T10:04:31.013Z,1513.00
2023-05-03T10:05:31.063Z,1451.00
2023-05-03T10:06:31.150Z,1322.00
2023-05-03T10:07:31.128Z,1180.00
2023-05-03T10:08:31.134Z,762.00
2023-05-03T10:09:31.236Z,706.00
2023-05-03T10:10:31.239Z,767.00
2023-05-03T10:11:31.299Z,637.00
2023-05-03T10:12:31.369Z,537.00
2023-05-03T10:13:31.434Z,610.00
2023-05-03T10:14:31.456Z,533.00
2023-05-03T10:15:31.514Z,500.00
2023-05-03T10:16:31.588Z,499.00
2023-05-03T10:17:47.154Z,530.00
2023-05-03T10:18:32.678Z,516.00
2023-05-03T10:19:31.667Z,533.00
2023-05-03T10:20:31.586Z,558.00
2023-05-03T10:21:31.561Z,557.00
2023-05-03T10:22:31.568Z,554.00
2023-05-03T10:23:31.551Z,526.00
2023-05-03T10:24:31.532Z,548.00
2023-05-03T10:25:31.524Z,592.00
2023-05-03T10:26:31.598Z,621.00
2023-05-03T10:27:31.525Z,604.00
2023-05-03T10:28:31.496Z,595.00
2023-05-03T10:29:31.523Z,611.00
2023-05-03T10:30:31.468Z,622.00
2023-05-03T10:31:31.559Z,626.00
2023-05-03T10:32:31.503Z,606.00
2023-05-03T10:33:31.480Z,583.00
2023-05-03T10:34:31.456Z,542.00
2023-05-03T10:35:31.530Z,541.00
2023-05-03T10:36:45.850Z,503.00
2023-05-03T10:37:32.461Z,504.00
2023-05-03T10:38:31.424Z,507.00
2023-05-03T10:39:31.438Z,527.00
2023-05-03T10:40:31.388Z,543.00
2023-05-03T10:41:31.413Z,593.00
2023-05-03T10:42:31.430Z,565.00
2023-05-03T10:43:31.406Z,585.00
2023-05-03T10:44:31.404Z,597.00
2023-05-03T10:45:31.405Z,545.00
2023-05-03T10:46:31.441Z,500.00
2023-05-03T10:47:31.395Z,497.00
2023-05-03T10:48:31.365Z,553.00
2023-05-03T10:49:31.384Z,555.00
2023-05-03T10:50:31.343Z,587.00
2023-05-03T10:51:31.341Z,551.00
2023-05-03T10:52:31.440Z,558.00
2023-05-03T10:53:31.337Z,568.00
2023-05-03T10:54:31.345Z,577.00
2023-05-03T10:55:31.379Z,579.00
2023-05-03T10:56:31.352Z,560.00
2023-05-03T10:57:31.391Z,531.00
2023-05-03T10:58:31.410Z,536.00
2023-05-03T10:59:31.468Z,548.00
2023-05-03T11:00:31.514Z,541.00
2023-05-03T11:01:31.553Z,515.00
2023-05-03T11:02:31.544Z,528.00
2023-05-03T11:03:31.574Z,526.00
2023-05-03T11:04:31.945Z,563.00
2023-05-03T11:05:31.657Z,551.00
2023-05-03T11:06:31.768Z,568.00
2023-05-03T11:07:31.701Z,535.00
2023-05-03T11:08:31.801Z,543.00
2023-05-03T11:09:31.846Z,564.00
2023-05-03T11:10:31.826Z,529.00
2023-05-03T11:11:31.862Z,537.00
2023-05-03T11:12:31.957Z,555.00
2023-05-03T11:13:31.975Z,598.00
2023-05-03T11:14:32.015Z,627.00
2023-05-03T11:15:32.076Z,699.00
2023-05-03T11:16:32.227Z,780.00
2023-05-03T11:17:32.164Z,982.00
2023-05-03T11:18:32.208Z,1080.00
2023-05-03T11:19:32.217Z,1124.00
2023-05-03T11:20:32.231Z,1220.00
2023-05-03T11:21:32.301Z,1296.00
2023-05-03T11:22:32.260Z,1348.00
2023-05-03T11:23:32.333Z,1481.00
2023-05-03T11:27:08.446Z,500.00
2023-05-03T11:28:06.931Z,500.00
2023-05-03T11:29:06.924Z,500.00
2023-05-03T11:30:06.870Z,500.00
2023-05-03T11:31:06.844Z,500.00
2023-05-03T11:32:06.880Z,500.00
2023-05-03T11:33:06.882Z,508.00
2023-05-03T11:34:06.941Z,501.00
2023-05-03T11:35:06.918Z,508.00
2023-05-03T11:36:06.965Z,508.00
2023-05-03T11:37:07.026Z,504.00
2023-05-03T11:38:07.074Z,505.00
2023-05-03T11:39:07.144Z,503.00
2023-05-03T11:40:07.170Z,517.00
2023-05-03T11:41:07.231Z,530.00
2023-05-03T11:42:07.362Z,548.00
2023-05-03T11:43:07.414Z,556.00
2023-05-03T11:44:16.067Z,566.00
2023-05-03T11:45:08.700Z,567.00
2023-05-03T11:46:07.409Z,572.00
2023-05-03T11:47:07.749Z,580.00
2023-05-03T11:48:07.428Z,588.00
2023-05-03T11:49:07.342Z,613.00
2023-05-03T11:50:07.345Z,637.00
2023-05-03T11:51:07.341Z,635.00
2023-05-03T11:52:07.347Z,641.00
2023-05-03T11:53:07.312Z,655.00
2023-05-03T11:54:20.954Z,652.00
2023-05-03T11:55:08.317Z,651.00
2023-05-03T11:56:07.308Z,605.00
2023-05-03T11:57:07.278Z,566.00
2023-05-03T11:58:07.303Z,405.00
2023-05-03T11:59:07.294Z,400.00
2023-05-03T12:00:07.297Z,400.00
2023-05-03T12:01:07.252Z,400.00
2023-05-03T12:02:07.536Z,400.00
2023-05-03T12:03:07.302Z,400.00
2023-05-03T12:04:07.366Z,400.00
2023-05-03T12:05:08.115Z,400.00
2023-05-03T12:06:08.043Z,400.00
2023-05-03T12:07:07.558Z,400.00
2023-05-03T12:08:07.694Z,500.00
2023-05-03T12:09:08.003Z,490.00
2023-05-03T12:10:15.951Z,473.00
2023-05-03T12:11:09.875Z,474.00
2023-05-03T12:12:09.445Z,400.00
2023-05-03T12:13:09.121Z,400.00
2023-05-03T12:14:07.369Z,400.00
2023-05-03T12:15:07.958Z,400.00
2023-05-03T12:16:12.663Z,400.00
2023-05-03T12:17:08.266Z,400.00
2023-05-03T12:18:09.110Z,400.00
2023-05-03T12:20:41.916Z,488.00
2023-05-03T12:22:22.888Z,406.00
2023-05-03T12:23:09.585Z,473.00
2023-05-03T12:24:07.335Z,477.00
2023-05-03T12:25:09.364Z,505.00
2023-05-03T12:26:09.688Z,476.00
2023-05-03T12:27:08.419Z,473.00
2023-05-03T12:28:19.532Z,457.00
2023-05-03T12:29:08.250Z,400.00
2023-05-03T12:30:09.259Z,400.00
2023-05-03T12:31:07.374Z,487.00
2023-05-03T12:32:07.269Z,552.00
2023-05-03T12:33:09.572Z,652.00
2023-05-03T12:34:30.865Z,639.00
2023-05-03T12:35:08.384Z,559.00
2023-05-03T12:36:09.342Z,445.00
2023-05-03T12:37:10.324Z,485.00
2023-05-03T12:38:09.506Z,494.00
2023-05-03T12:39:09.929Z,521.00
2023-05-03T12:40:31.815Z,618.00
2023-05-03T12:41:09.321Z,640.00
2023-05-03T12:42:08.299Z,527.00
2023-05-03T12:43:07.287Z,613.00
2023-05-03T12:44:10.321Z,635.00
2023-05-03T12:45:07.685Z,597.00
2023-05-03T12:46:32.418Z,434.00
2023-05-03T12:47:09.750Z,482.00
2023-05-03T12:48:07.263Z,502.00
2023-05-03T12:49:08.423Z,586.00
2023-05-03T12:50:10.259Z,491.00
2023-05-03T12:51:19.427Z,600.00
2023-05-03T12:54:09.974Z,654.00
2023-05-03T12:55:10.857Z,640.00
2023-05-03T12:56:07.309Z,639.00
2023-05-03T12:58:36.746Z,612.00
2023-05-03T13:00:13.592Z,639.00
2023-05-03T13:03:15.592Z,524.00
2023-05-03T13:03:20.425Z,542.00
2023-05-03T13:04:43.214Z,400.00
2023-05-03T13:05:13.761Z,400.00
2023-05-03T13:06:13.475Z,400.00
2023-05-03T13:07:13.144Z,400.00
2023-05-03T13:08:10.026Z,400.00
2023-05-03T13:09:07.204Z,400.00
2023-05-03T13:11:07.234Z,400.00
2023-05-03T13:12:07.016Z,400.00
2023-05-03T13:13:07.021Z,400.00
2023-05-03T13:14:07.001Z,400.00
2023-05-03T13:15:07.459Z,400.00
2023-05-03T13:16:07.016Z,400.00
2023-05-03T13:17:07.064Z,587.00
2023-05-03T13:18:06.964Z,788.00
2023-05-03T13:19:06.980Z,895.00
2023-05-03T13:20:07.088Z,966.00
2023-05-03T13:21:06.939Z,1008.00
2023-05-03T13:22:06.925Z,1063.00
2023-05-03T13:23:06.937Z,1096.00
2023-05-03T13:24:06.920Z,1150.00
2023-05-03T13:25:07.034Z,1286.00
2023-05-03T13:26:06.973Z,1278.00
2023-05-03T13:27:06.924Z,1307.00
2023-05-03T13:28:06.884Z,1286.00
2023-05-03T13:29:06.935Z,1340.00
2023-05-03T13:30:06.947Z,1408.00
2023-05-03T13:31:06.891Z,1467.00
2023-05-03T13:32:06.969Z,1426.00
2023-05-03T13:33:06.914Z,1462.00
2023-05-03T13:34:06.859Z,1590.00
2023-05-03T13:35:07.058Z,1603.00
2023-05-03T13:36:06.882Z,1629.00
2023-05-03T13:37:06.831Z,1650.00
2023-05-03T13:38:06.857Z,1688.00
2023-05-03T13:39:06.829Z,1664.00
2023-05-03T13:40:07.006Z,1667.00
2023-05-03T13:41:06.823Z,1655.00
2023-05-03T13:42:06.818Z,1583.00
2023-05-03T13:43:06.775Z,1554.00
2023-05-03T13:44:06.802Z,1560.00
2023-05-03T13:45:06.797Z,1572.00
2023-05-03T13:46:06.864Z,1506.00
2023-05-03T13:47:06.760Z,1452.00
2023-05-03T13:48:18.328Z,1379.00
2023-05-03T13:49:07.793Z,1380.00
2023-05-03T13:50:07.008Z,1382.00
2023-05-03T13:51:06.788Z,1405.00
2023-05-03T13:52:06.755Z,1483.00
2023-05-03T13:53:06.789Z,1520.00
2023-05-03T13:54:06.730Z,1514.00
2023-05-03T13:55:06.735Z,1457.00
2023-05-03T13:56:06.755Z,1419.00
2023-05-03T13:57:06.725Z,1482.00
2023-05-03T13:58:06.950Z,1369.00
2023-05-03T13:59:06.818Z,1487.00
2023-05-03T14:00:07.217Z,1373.00
2023-05-03T14:01:06.934Z,1227.00
2023-05-03T14:02:06.912Z,1201.00
2023-05-03T14:03:07.162Z,1187.00
2023-05-03T14:04:07.168Z,1214.00
2023-05-03T14:05:07.271Z,1250.00
2023-05-03T14:06:07.174Z,1292.00
2023-05-03T14:07:07.257Z,1380.00
2023-05-03T14:08:07.262Z,1335.00
2023-05-03T14:09:07.303Z,1443.00
2023-05-03T14:10:07.865Z,1517.00
2023-05-03T14:11:07.418Z,1540.00
2023-05-03T14:12:07.494Z,1656.00
2023-05-03T14:13:07.712Z,1633.00
2023-05-03T14:14:07.645Z,1703.00
2023-05-03T14:15:07.727Z,1730.00
2023-05-03T14:16:07.779Z,1796.00
2023-05-03T14:17:07.936Z,1817.00
2023-05-03T14:18:08.048Z,1868.00
2023-05-03T14:19:08.040Z,1917.00
2023-05-03T14:20:08.144Z,1944.00
2023-05-03T14:21:08.023Z,2008.00
2023-05-03T14:22:08.135Z,2022.00
2023-05-03T14:23:08.195Z,2029.00
2023-05-03T14:24:08.195Z,2056.00
2023-05-03T14:25:08.268Z,2061.00
2023-05-03T14:26:08.350Z,2057.00
2023-05-03T14:27:08.372Z,2102.00
2023-05-03T14:28:08.437Z,2100.00
2023-05-03T14:29:08.475Z,2096.00
2023-05-03T14:30:08.566Z,2090.00
2023-05-03T14:31:08.673Z,2113.00
2023-05-03T14:32:08.688Z,2140.00
2023-05-03T14:33:08.824Z,2147.00
2023-05-03T14:34:08.837Z,2171.00
2023-05-03T14:35:08.862Z,2178.00
2023-05-03T14:36:09.019Z,2174.00
2023-05-03T14:37:09.175Z,2170.00
2023-05-03T14:38:09.074Z,2176.00
2023-05-03T14:39:09.112Z,2192.00
2023-05-03T14:40:09.200Z,2178.00
2023-05-03T14:41:09.211Z,2205.00
2023-05-03T14:42:09.262Z,2189.00
2023-05-03T14:43:09.317Z,2194.00
2023-05-03T14:44:09.499Z,2213.00
2023-05-03T14:45:11.813Z,2220.00
2023-05-03T14:46:09.435Z,2222.00
2023-05-03T14:47:09.509Z,2219.00
2023-05-03T14:48:09.472Z,2225.00
2023-05-03T14:49:09.437Z,2210.00
2023-05-03T14:50:09.368Z,2224.00
2023-05-03T14:51:09.439Z,2218.00
2023-05-03T14:52:09.401Z,2234.00
2023-05-03T14:53:09.404Z,2226.00
2023-05-03T14:54:09.373Z,2254.00
2023-05-03T14:55:09.370Z,2243.00
2023-05-03T14:56:09.349Z,2243.00
2023-05-03T14:57:09.376Z,2240.00
2023-05-03T14:58:10.098Z,2244.00
2023-05-03T14:59:09.341Z,2239.00
2023-05-03T15:00:09.349Z,2242.00
2023-05-03T15:01:09.360Z,2240.00
2023-05-03T15:02:09.339Z,2256.00
2023-05-03T15:03:09.420Z,2243.00
2023-05-03T15:04:09.320Z,2242.00
2023-05-03T15:05:09.293Z,2233.00
2023-05-03T15:06:09.295Z,2241.00
2023-05-03T15:07:09.401Z,2231.00
2023-05-03T15:08:09.286Z,2232.00
2023-05-03T15:09:09.267Z,2235.00
2023-05-03T15:10:09.256Z,2245.00
2023-05-03T15:11:09.398Z,2241.00
2023-05-03T15:12:09.230Z,2244.00
2023-05-03T15:13:09.329Z,2223.00
2023-05-03T15:14:09.326Z,2211.00
2023-05-03T15:15:09.280Z,2222.00
2023-05-03T15:16:09.279Z,2226.00
2023-05-03T15:17:09.292Z,2227.00
2023-05-03T15:18:09.298Z,2206.00
2023-05-03T15:19:09.224Z,2203.00
2023-05-03T15:20:09.223Z,2196.00
2023-05-03T15:21:09.252Z,2206.00
2023-05-03T15:22:09.252Z,2205.00
2023-05-03T15:23:09.360Z,2203.00
2023-05-03T15:24:09.285Z,2207.00
2023-05-03T15:25:09.354Z,2217.00
2023-05-03T15:26:09.393Z,2188.00
2023-05-03T15:27:09.397Z,2201.00
2023-05-03T15:28:09.488Z,2193.00
2023-05-03T15:29:09.487Z,2203.00
2023-05-03T15:30:09.603Z,2185.00
2023-05-03T15:31:09.582Z,2190.00
2023-05-03T15:32:09.580Z,2192.00
2023-05-03T15:33:09.680Z,2188.00
2023-05-03T15:34:09.651Z,2182.00
2023-05-03T15:35:09.699Z,2187.00
2023-05-03T15:36:09.728Z,2162.00
2023-05-03T15:37:09.751Z,2171.00
2023-05-03T15:38:09.752Z,2173.00
2023-05-03T15:39:09.797Z,2179.00
2023-05-03T15:40:09.831Z,2167.00
2023-05-03T15:41:09.841Z,2150.00
2023-05-03T15:42:09.834Z,2156.00
2023-05-03T15:43:09.847Z,2148.00
2023-05-03T15:44:09.919Z,2130.00
2023-05-03T15:45:09.884Z,2142.00
2023-05-03T15:46:09.909Z,2133.00
2023-05-03T15:47:09.920Z,2151.00
2023-05-03T15:48:09.956Z,2143.00
2023-05-03T15:49:09.911Z,2120.00
2023-05-03T15:50:09.936Z,2124.00
2023-05-03T15:51:10.036Z,2122.00
2023-05-03T15:52:10.004Z,2113.00
2023-05-03T15:53:09.993Z,2121.00
2023-05-03T15:54:09.986Z,2113.00
2023-05-03T15:55:10.008Z,2111.00
2023-05-03T15:56:09.971Z,2125.00
2023-05-03T15:57:10.003Z,2108.00
2023-05-03T15:58:10.003Z,2110.00
2023-05-03T15:59:10.066Z,2092.00
2023-05-03T16:00:10.273Z,2101.00
2023-05-03T16:01:10.050Z,2102.00
2023-05-03T16:02:09.992Z,2080.00
2023-05-03T16:03:10.097Z,2106.00
2023-05-03T16:04:10.051Z,2086.00
2023-05-03T16:05:10.011Z,2103.00
2023-05-03T16:06:09.993Z,2098.00
2023-05-03T16:07:09.963Z,2094.00
2023-05-03T16:08:09.984Z,2081.00
2023-05-03T16:09:09.978Z,2081.00
2023-05-03T16:10:09.995Z,2088.00
2023-05-03T16:11:09.991Z,2091.00
2023-05-03T16:12:09.955Z,2069.00
2023-05-03T16:13:09.993Z,2079.00
2023-05-03T16:14:09.988Z,2064.00
2023-05-03T16:15:09.968Z,2081.00
2023-05-03T16:16:10.038Z,2064.00
2023-05-03T16:17:10.109Z,2059.00
2023-05-03T16:18:10.031Z,2041.00
2023-05-03T16:19:09.964Z,2059.00
2023-05-03T16:20:09.971Z,2062.00
2023-05-03T16:21:10.006Z,2059.00
2023-05-03T16:22:09.943Z,2046.00
2023-05-03T16:23:09.951Z,2056.00
2023-05-03T16:24:09.994Z,2039.00
2023-05-03T16:25:09.992Z,2059.00
2023-05-03T16:26:09.948Z,2050.00
2023-05-03T16:27:09.954Z,2050.00
2023-05-03T16:28:09.965Z,2053.00
2023-05-03T16:29:09.955Z,2037.00
2023-05-03T16:30:09.948Z,2049.00
2023-05-03T16:31:09.969Z,2023.00
2023-05-03T16:32:10.080Z,2025.00
2023-05-03T16:33:10.013Z,2028.00
2023-05-03T16:34:09.957Z,2023.00
2023-05-03T16:35:09.999Z,2027.00
2023-05-03T16:36:09.977Z,2018.00
2023-05-03T16:37:09.989Z,2016.00
2023-05-03T16:38:09.992Z,2020.00
2023-05-03T16:39:09.979Z,1998.00
2023-05-03T16:40:09.949Z,2004.00
2023-05-03T16:41:09.981Z,2007.00
2023-05-03T16:42:09.984Z,1997.00
2023-05-03T16:43:09.982Z,1993.00
2023-05-03T16:44:09.991Z,2000.00
2023-05-03T16:45:09.988Z,1981.00
2023-05-03T16:46:10.117Z,1998.00
2023-05-03T16:47:09.979Z,1992.00
2023-05-03T16:48:10.615Z,1989.00
2023-05-03T16:49:10.031Z,1980.00
2023-05-03T16:50:10.001Z,1981.00
2023-05-03T16:51:10.021Z,1974.00
2023-05-03T16:52:10.001Z,1972.00
2023-05-03T16:53:10.026Z,1973.00
2023-05-03T16:54:10.052Z,1963.00
2023-05-03T16:55:10.044Z,1967.00
2023-05-03T16:56:10.053Z,1966.00
2023-05-03T16:57:10.161Z,1951.00
2023-05-03T16:58:10.039Z,1945.00
2023-05-03T16:59:10.044Z,1944.00
2023-05-03T17:00:10.447Z,1952.00
